Time;durP1;ratioP1;P1;durP2;ratioP2;P2;SDS_P1;SDS_P2;PMS_P1;PMS_P2;Temp;Humidity;BMP_temperature;BMP_pressure;BME280_temperature;BME280_humidity;BME280_pressure;Samples;Min_cycle;Max_cycle;Signal;HPM_P1;HPM_P2
2022/06/18 00:01:33;;;;;;;2.38;2.10;;;;;;;;;;5052274;28;20380;-87
2022/06/18 00:04:04;;;;;;;2.40;2.17;;;;;;;;;;5029573;28;20375;-85
2022/06/18 00:06:31;;;;;;;2.05;1.95;;;;;;;;;;5035779;28;20846;-84
2022/06/18 00:08:57;;;;;;;2.30;2.20;;;;;;;;;;5023280;28;20399;-84
2022/06/18 00:14:09;;;;;;;2.28;2.08;;;;;;;;;;5020447;28;20513;-84
2022/06/18 00:16:36;;;;;;;2.40;1.90;;;;;;;;;;5049425;28;20385;-85
2022/06/18 00:19:02;;;;;;;2.30;1.92;;;;;;;;;;5050706;28;20386;-84
2022/06/18 00:21:28;;;;;;;2.10;1.90;;;;;;;;;;5048882;28;20380;-85
2022/06/18 00:23:54;;;;;;;2.40;2.00;;;;;;;;;;5050608;28;20385;-85
2022/06/18 00:26:20;;;;;;;3.03;2.30;;;;;;;;;;5050233;28;20511;-85
2022/06/18 00:28:46;;;;;;;2.75;1.95;;;;;;;;;;5050200;28;20382;-85
2022/06/18 00:31:13;;;;;;;5.35;2.42;;;;;;;;;;5052607;28;20400;-85
2022/06/18 00:33:40;;;;;;;4.97;2.50;;;;;;;;;;5054707;28;20377;-86
2022/06/18 00:36:07;;;;;;;2.00;1.90;;;;;;;;;;5043021;28;20395;-84
2022/06/18 00:38:35;;;;;;;2.00;1.80;;;;;;;;;;5054904;28;20781;-85
2022/06/18 00:41:01;;;;;;;2.42;1.98;;;;;;;;;;5055868;28;20385;-84
2022/06/18 00:43:31;;;;;;;2.28;1.98;;;;;;;;;;5055222;28;20415;-84
2022/06/18 00:46:00;;;;;;;2.08;1.98;;;;;;;;;;5055346;28;20408;-85
2022/06/18 00:48:30;;;;;;;2.33;2.17;;;;;;;;;;5055077;28;20385;-85
2022/06/18 00:50:58;;;;;;;2.70;2.00;;;;;;;;;;5054115;28;20397;-87
2022/06/18 00:53:35;;;;;;;2.77;2.13;;;;;;;;;;5043226;28;20414;-85
2022/06/18 00:56:09;;;;;;;2.22;1.92;;;;;;;;;;5054894;28;20487;-86
2022/06/18 00:58:54;;;;;;;2.22;2.03;;;;;;;;;;5054764;28;20743;-86
2022/06/18 01:01:26;;;;;;;1.83;1.73;;;;;;;;;;5056389;28;20426;-85
2022/06/18 01:03:52;;;;;;;2.22;2.03;;;;;;;;;;5056119;28;21057;-85
2022/06/18 01:06:27;;;;;;;2.72;2.20;;;;;;;;;;5055046;28;20405;-86
2022/06/18 01:09:02;;;;;;;2.22;2.03;;;;;;;;;;5055981;28;20465;-85
2022/06/18 01:11:29;;;;;;;2.07;1.90;;;;;;;;;;5041667;28;20434;-87
2022/06/18 01:13:57;;;;;;;1.73;1.63;;;;;;;;;;5022683;28;20808;-87
2022/06/18 01:16:23;;;;;;;1.95;1.85;;;;;;;;;;5036407;28;20393;-87
2022/06/18 01:18:50;;;;;;;2.17;1.98;;;;;;;;;;5033458;28;20903;-85
2022/06/18 01:21:16;;;;;;;3.22;2.10;;;;;;;;;;5032068;28;20396;-87
2022/06/18 01:23:46;;;;;;;2.15;1.90;;;;;;;;;;5034981;28;20443;-87
2022/06/18 01:26:12;;;;;;;2.00;1.80;;;;;;;;;;5037004;28;21145;-87
2022/06/18 01:28:38;;;;;;;2.28;1.98;;;;;;;;;;5035811;28;20927;-86
2022/06/18 01:31:04;;;;;;;1.77;1.67;;;;;;;;;;5034760;28;20439;-86
2022/06/18 01:33:32;;;;;;;1.80;1.70;;;;;;;;;;5037356;28;20883;-86
2022/06/18 01:35:58;;;;;;;1.90;1.80;;;;;;;;;;5040310;28;20423;-88
2022/06/18 01:38:24;;;;;;;1.90;1.70;;;;;;;;;;5038113;28;20391;-87
2022/06/18 01:41:49;;;;;;;1.73;1.60;;;;;;;;;;5043405;28;20497;-87
2022/06/18 01:43:49;;;;;;;2.10;1.90;;;;;;;;;;5052882;28;20382;-86
2022/06/18 01:46:15;;;;;;;1.80;1.70;;;;;;;;;;5053571;28;20397;-87
2022/06/18 01:48:43;;;;;;;2.20;2.00;;;;;;;;;;5049058;28;20406;-86
2022/06/18 01:51:15;;;;;;;2.03;1.80;;;;;;;;;;5053380;28;20862;-87
2022/06/18 01:53:47;;;;;;;2.58;2.03;;;;;;;;;;5053134;28;20386;-86
2022/06/18 01:56:15;;;;;;;2.25;2.10;;;;;;;;;;5029489;28;20875;-87
2022/06/18 01:58:45;;;;;;;2.53;2.33;;;;;;;;;;5033191;28;20372;-87
2022/06/18 02:01:18;;;;;;;2.50;2.30;;;;;;;;;;5038460;28;20431;-86
2022/06/18 02:03:44;;;;;;;2.85;2.20;;;;;;;;;;5039894;28;20383;-86
2022/06/18 02:06:10;;;;;;;2.63;2.10;;;;;;;;;;5038571;28;20394;-86
2022/06/18 02:08:37;;;;;;;2.33;2.13;;;;;;;;;;5054855;28;20385;-86
2022/06/18 02:11:05;;;;;;;2.58;1.88;;;;;;;;;;5054547;28;20378;-86
2022/06/18 02:13:45;;;;;;;1.90;1.80;;;;;;;;;;5044951;28;20817;-86
2022/06/18 02:16:14;;;;;;;1.90;1.80;;;;;;;;;;5053386;28;20874;-86
2022/06/18 02:18:40;;;;;;;2.20;2.00;;;;;;;;;;5035604;28;20475;-87
2022/06/18 02:21:08;;;;;;;2.05;1.85;;;;;;;;;;5055136;28;20389;-87
2022/06/18 02:23:34;;;;;;;1.90;1.80;;;;;;;;;;5055680;28;20739;-87
2022/06/18 02:26:00;;;;;;;1.90;1.80;;;;;;;;;;5055414;28;20505;-87
2022/06/18 02:28:36;;;;;;;1.90;1.80;;;;;;;;;;5047680;28;20780;-87
2022/06/18 02:31:03;;;;;;;2.00;1.90;;;;;;;;;;5048440;28;20374;-87
2022/06/18 02:33:35;;;;;;;1.90;1.80;;;;;;;;;;5053959;28;20397;-87
2022/06/18 02:36:06;;;;;;;2.00;1.90;;;;;;;;;;5047710;28;20868;-87
2022/06/18 02:38:32;;;;;;;2.45;2.03;;;;;;;;;;5039623;28;20381;-87
2022/06/18 02:40:58;;;;;;;2.10;1.80;;;;;;;;;;5043466;28;20391;-87
2022/06/18 02:43:24;;;;;;;2.33;1.80;;;;;;;;;;5051416;28;20384;-87
2022/06/18 02:45:52;;;;;;;2.08;1.98;;;;;;;;;;5052947;28;20828;-86
2022/06/18 02:48:19;;;;;;;2.10;1.90;;;;;;;;;;5054360;28;20770;-86
2022/06/18 02:50:45;;;;;;;2.50;2.00;;;;;;;;;;5054510;28;20489;-86
2022/06/18 02:53:12;;;;;;;1.80;1.70;;;;;;;;;;5053996;28;20385;-86
2022/06/18 02:55:40;;;;;;;1.80;1.70;;;;;;;;;;5053047;28;20385;-86
2022/06/18 02:58:08;;;;;;;2.15;1.95;;;;;;;;;;5042680;28;20373;-86
2022/06/18 03:00:38;;;;;;;1.80;1.70;;;;;;;;;;5053925;28;20424;-86
2022/06/18 03:03:06;;;;;;;1.95;1.85;;;;;;;;;;5054290;28;20373;-86
2022/06/18 03:05:32;;;;;;;2.15;1.95;;;;;;;;;;5053975;28;20405;-86
2022/06/18 03:07:58;;;;;;;2.00;1.90;;;;;;;;;;5054562;28;20421;-86
2022/06/18 03:13:09;;;;;;;2.25;2.15;;;;;;;;;;5048794;28;20474;-86
2022/06/18 03:15:35;;;;;;;3.23;2.17;;;;;;;;;;5045542;28;20386;-85
2022/06/18 03:18:02;;;;;;;2.20;2.00;;;;;;;;;;5054868;28;20382;-86
2022/06/18 03:20:35;;;;;;;2.30;2.10;;;;;;;;;;5054603;28;20386;-87
2022/06/18 03:23:01;;;;;;;2.22;2.10;;;;;;;;;;5054433;28;20388;-86
2022/06/18 03:25:27;;;;;;;1.98;1.88;;;;;;;;;;5055443;28;20894;-86
2022/06/18 03:27:53;;;;;;;2.40;1.90;;;;;;;;;;5055239;28;20392;-85
2022/06/18 03:30:19;;;;;;;2.50;2.30;;;;;;;;;;5046349;28;20379;-85
2022/06/18 03:32:46;;;;;;;2.10;1.92;;;;;;;;;;5049099;28;20385;-85
2022/06/18 03:35:12;;;;;;;2.55;2.28;;;;;;;;;;5053581;28;20393;-85
2022/06/18 03:37:38;;;;;;;2.50;2.30;;;;;;;;;;5044742;28;20382;-86
2022/06/18 03:40:04;;;;;;;2.40;2.20;;;;;;;;;;5051238;28;20383;-86
2022/06/18 03:42:30;;;;;;;2.30;1.95;;;;;;;;;;5044513;28;20385;-85
2022/06/18 03:44:56;;;;;;;2.17;2.05;;;;;;;;;;5053111;28;20405;-85
2022/06/18 03:47:23;;;;;;;2.00;1.90;;;;;;;;;;5034572;28;20398;-86
2022/06/18 03:49:49;;;;;;;2.50;2.30;;;;;;;;;;5048376;28;20374;-85
2022/06/18 03:52:15;;;;;;;2.20;2.00;;;;;;;;;;5053839;28;20404;-86
2022/06/18 03:54:42;;;;;;;2.30;2.10;;;;;;;;;;5054050;28;20862;-85
2022/06/18 03:57:10;;;;;;;2.30;2.10;;;;;;;;;;5054646;28;20382;-85
2022/06/18 03:59:36;;;;;;;2.13;1.92;;;;;;;;;;5053238;28;20389;-85
2022/06/18 04:02:02;;;;;;;2.45;2.20;;;;;;;;;;5052854;28;20405;-86
2022/06/18 04:04:28;;;;;;;2.90;2.20;;;;;;;;;;5053514;28;20413;-85
2022/06/18 04:06:55;;;;;;;2.40;2.20;;;;;;;;;;5052270;28;20382;-85
2022/06/18 04:09:21;;;;;;;2.05;1.95;;;;;;;;;;5035927;28;20581;-86
2022/06/18 04:11:47;;;;;;;2.58;2.20;;;;;;;;;;5024311;28;20954;-86
2022/06/18 04:14:14;;;;;;;2.80;2.10;;;;;;;;;;5024420;28;20504;-86
2022/06/18 04:16:40;;;;;;;2.40;2.20;;;;;;;;;;5040474;28;20413;-85
2022/06/18 04:19:06;;;;;;;2.38;2.20;;;;;;;;;;5050482;28;20389;-85
2022/06/18 04:21:32;;;;;;;2.65;2.10;;;;;;;;;;5049300;28;20379;-86
2022/06/18 04:23:58;;;;;;;2.00;1.90;;;;;;;;;;5047826;28;20480;-85
2022/06/18 04:26:24;;;;;;;2.22;2.03;;;;;;;;;;5041227;28;20395;-85
2022/06/18 04:28:50;;;;;;;2.20;2.00;;;;;;;;;;5047067;28;20388;-85
2022/06/18 04:31:16;;;;;;;2.85;2.30;;;;;;;;;;5057721;28;20377;-85
2022/06/18 04:33:43;;;;;;;2.58;2.38;;;;;;;;;;5057253;28;20377;-86
2022/06/18 04:36:18;;;;;;;2.33;2.10;;;;;;;;;;5050100;28;20383;-85
2022/06/18 04:38:44;;;;;;;2.30;2.10;;;;;;;;;;5044043;28;20381;-87
2022/06/18 04:41:10;;;;;;;2.30;2.20;;;;;;;;;;5056975;28;20450;-85
2022/06/18 04:43:36;;;;;;;2.13;1.98;;;;;;;;;;5055889;28;20751;-86
2022/06/18 04:46:03;;;;;;;2.67;2.23;;;;;;;;;;5057106;28;20401;-86
2022/06/18 04:48:28;;;;;;;2.85;2.40;;;;;;;;;;5057087;28;20390;-86
2022/06/18 04:50:54;;;;;;;2.70;2.50;;;;;;;;;;5055711;28;20389;-85
2022/06/18 04:53:20;;;;;;;2.58;2.38;;;;;;;;;;5056939;28;20549;-85
2022/06/18 04:55:46;;;;;;;2.95;2.45;;;;;;;;;;5056763;28;20389;-85
2022/06/18 04:58:12;;;;;;;2.87;2.60;;;;;;;;;;5057474;28;20514;-85
2022/06/18 05:00:40;;;;;;;2.80;2.60;;;;;;;;;;5058292;28;20877;-85
2022/06/18 05:03:06;;;;;;;2.50;2.40;;;;;;;;;;5049250;28;20387;-85
2022/06/18 05:05:32;;;;;;;2.45;2.25;;;;;;;;;;5049407;28;20783;-85
2022/06/18 05:07:58;;;;;;;2.40;2.20;;;;;;;;;;5055827;28;20390;-85
2022/06/18 05:10:24;;;;;;;2.33;2.13;;;;;;;;;;5054996;28;20440;-85
2022/06/18 05:12:50;;;;;;;3.00;2.20;;;;;;;;;;5055699;28;20398;-84
2022/06/18 05:15:16;;;;;;;3.30;2.30;;;;;;;;;;5056243;28;20385;-84
2022/06/18 05:17:46;;;;;;;2.70;2.20;;;;;;;;;;5054674;28;20399;-85
2022/06/18 05:20:18;;;;;;;2.43;1.90;;;;;;;;;;5056396;28;20458;-85
2022/06/18 05:22:44;;;;;;;2.00;1.90;;;;;;;;;;5055909;28;20386;-86
2022/06/18 05:25:11;;;;;;;3.60;2.30;;;;;;;;;;5056041;28;20801;-87
2022/06/18 05:27:37;;;;;;;2.22;2.03;;;;;;;;;;5055998;28;20417;-86
2022/06/18 05:30:04;;;;;;;2.78;2.10;;;;;;;;;;5055971;28;20385;-86
2022/06/18 05:32:30;;;;;;;2.10;2.00;;;;;;;;;;5028578;28;20391;-85
2022/06/18 05:34:56;;;;;;;3.10;2.20;;;;;;;;;;5038585;28;20449;-87
2022/06/18 05:37:27;;;;;;;2.13;1.92;;;;;;;;;;5047008;28;20385;-85
2022/06/18 05:39:53;;;;;;;2.50;2.30;;;;;;;;;;5055500;28;20846;-86
2022/06/18 05:42:19;;;;;;;2.45;2.25;;;;;;;;;;5055492;28;20389;-85
2022/06/18 05:44:45;;;;;;;2.70;2.10;;;;;;;;;;5055256;28;20404;-86
2022/06/18 05:47:11;;;;;;;3.22;2.30;;;;;;;;;;5054894;28;20732;-86
2022/06/18 05:49:37;;;;;;;2.50;2.30;;;;;;;;;;5048435;28;20371;-87
2022/06/18 05:52:03;;;;;;;2.30;2.10;;;;;;;;;;5035201;28;20383;-85
2022/06/18 05:54:29;;;;;;;2.40;2.20;;;;;;;;;;5054280;28;20384;-86
2022/06/18 05:56:55;;;;;;;3.85;2.15;;;;;;;;;;5031742;28;20383;-85
2022/06/18 05:59:21;;;;;;;2.72;2.10;;;;;;;;;;5039241;28;20408;-85
2022/06/18 06:01:47;;;;;;;2.63;1.97;;;;;;;;;;5035152;28;20383;-85
2022/06/18 06:04:16;;;;;;;1.90;1.80;;;;;;;;;;5037394;28;20478;-85
2022/06/18 06:06:42;;;;;;;2.22;1.77;;;;;;;;;;5043219;28;20405;-85
2022/06/18 06:09:11;;;;;;;2.53;1.90;;;;;;;;;;5031644;28;20404;-85
2022/06/18 06:11:38;;;;;;;2.28;1.90;;;;;;;;;;5047458;28;20785;-87
2022/06/18 06:14:04;;;;;;;2.35;1.75;;;;;;;;;;5040900;28;20391;-85
2022/06/18 06:16:31;;;;;;;2.20;1.90;;;;;;;;;;5047438;28;20763;-85
2022/06/18 06:18:57;;;;;;;3.70;1.90;;;;;;;;;;5053897;28;20988;-86
2022/06/18 06:21:23;;;;;;;1.98;1.70;;;;;;;;;;5051506;28;20385;-84
2022/06/18 06:23:50;;;;;;;2.30;2.00;;;;;;;;;;5038713;28;20381;-84
2022/06/18 06:26:21;;;;;;;2.90;2.03;;;;;;;;;;5054486;28;20397;-85
2022/06/18 06:28:47;;;;;;;2.97;2.20;;;;;;;;;;5053589;28;20438;-83
2022/06/18 06:31:13;;;;;;;1.98;1.88;;;;;;;;;;5054316;28;20374;-84
2022/06/18 06:33:40;;;;;;;2.40;2.20;;;;;;;;;;5054280;28;20373;-86
2022/06/18 06:36:06;;;;;;;2.20;2.10;;;;;;;;;;5047150;28;20387;-85
2022/06/18 06:38:32;;;;;;;2.13;1.92;;;;;;;;;;5053032;28;20392;-85
2022/06/18 06:40:59;;;;;;;2.20;2.00;;;;;;;;;;5054233;28;20439;-84
2022/06/18 06:43:25;;;;;;;2.55;2.30;;;;;;;;;;5053886;28;20385;-84
2022/06/18 06:45:51;;;;;;;2.90;2.10;;;;;;;;;;5053403;28;20899;-84
2022/06/18 06:48:17;;;;;;;2.05;1.80;;;;;;;;;;5052577;28;20386;-84
2022/06/18 06:50:45;;;;;;;3.45;2.17;;;;;;;;;;5053276;28;20392;-84
2022/06/18 06:53:11;;;;;;;1.90;1.80;;;;;;;;;;5053271;28;20374;-83
2022/06/18 06:58:23;;;;;;;3.78;1.92;;;;;;;;;;5037074;28;20396;-84
2022/06/18 07:00:50;;;;;;;3.08;2.05;;;;;;;;;;5036083;28;20476;-86
2022/06/18 07:03:18;;;;;;;3.70;2.00;;;;;;;;;;5029931;28;20977;-84
2022/06/18 07:05:45;;;;;;;2.13;1.83;;;;;;;;;;5042347;28;20484;-85
2022/06/18 07:08:11;;;;;;;3.30;1.98;;;;;;;;;;5053771;28;20381;-86
2022/06/18 07:10:37;;;;;;;2.88;1.90;;;;;;;;;;5052451;28;20405;-87
2022/06/18 07:13:04;;;;;;;3.25;2.10;;;;;;;;;;5053494;28;20389;-88
2022/06/18 07:15:30;;;;;;;2.97;2.38;;;;;;;;;;5053874;28;20392;-86
2022/06/18 07:17:57;;;;;;;2.67;1.98;;;;;;;;;;5037060;28;20393;-86
2022/06/18 07:20:23;;;;;;;2.10;1.90;;;;;;;;;;5031669;28;20402;-88
2022/06/18 07:22:49;;;;;;;1.95;1.83;;;;;;;;;;5027942;28;20391;-83
2022/06/18 07:25:15;;;;;;;2.33;1.98;;;;;;;;;;5040554;28;20405;-82
2022/06/18 07:27:42;;;;;;;1.85;1.75;;;;;;;;;;5053352;28;20889;-82
2022/06/18 07:30:08;;;;;;;2.15;1.95;;;;;;;;;;5052890;28;20378;-82
2022/06/18 07:32:35;;;;;;;2.20;1.95;;;;;;;;;;5048758;28;20431;-83
2022/06/18 07:35:01;;;;;;;2.15;2.05;;;;;;;;;;5053102;28;20754;-84
2022/06/18 07:37:29;;;;;;;2.17;1.90;;;;;;;;;;5044267;28;20928;-84
2022/06/18 07:39:55;;;;;;;1.90;1.80;;;;;;;;;;5043210;28;20391;-85
2022/06/18 07:42:21;;;;;;;1.70;1.60;;;;;;;;;;5052696;28;20472;-83
2022/06/18 07:44:48;;;;;;;2.20;2.00;;;;;;;;;;5051260;28;20886;-85
2022/06/18 07:47:16;;;;;;;1.88;1.77;;;;;;;;;;5042728;28;20799;-83
2022/06/18 07:49:42;;;;;;;2.10;1.90;;;;;;;;;;5052554;28;20389;-83
2022/06/18 07:52:08;;;;;;;2.50;1.80;;;;;;;;;;5053378;28;20383;-83
2022/06/18 07:54:34;;;;;;;1.90;1.80;;;;;;;;;;5060678;28;20392;-87
2022/06/18 07:57:00;;;;;;;1.70;1.60;;;;;;;;;;5059362;28;20375;-88
2022/06/18 07:59:26;;;;;;;3.45;1.85;;;;;;;;;;5046936;28;20408;-88
2022/06/18 08:01:55;;;;;;;2.58;1.98;;;;;;;;;;5051627;28;20437;-88
2022/06/18 08:04:22;;;;;;;1.80;1.70;;;;;;;;;;5036436;28;20391;-87
2022/06/18 08:06:48;;;;;;;2.60;1.70;;;;;;;;;;5046492;28;20456;-88
2022/06/18 08:09:14;;;;;;;3.42;2.00;;;;;;;;;;5039934;28;20375;-88
2022/06/18 08:11:41;;;;;;;3.50;2.20;;;;;;;;;;5043185;28;20373;-88
2022/06/18 08:14:07;;;;;;;1.92;1.70;;;;;;;;;;5054965;28;20382;-88
2022/06/18 08:16:34;;;;;;;2.75;1.90;;;;;;;;;;5054694;28;20386;-89
2022/06/18 08:19:00;;;;;;;1.90;1.80;;;;;;;;;;5054134;28;20397;-89
2022/06/18 08:21:26;;;;;;;2.20;2.00;;;;;;;;;;5052298;28;20443;-88
2022/06/18 08:23:54;;;;;;;2.80;1.85;;;;;;;;;;5037988;28;20381;-88
2022/06/18 08:26:20;;;;;;;1.88;1.77;;;;;;;;;;5040246;28;20462;-88
2022/06/18 08:28:47;;;;;;;2.40;1.90;;;;;;;;;;5030831;28;20859;-88
2022/06/18 08:31:13;;;;;;;2.85;2.30;;;;;;;;;;5039196;28;20398;-89
2022/06/18 08:33:40;;;;;;;4.20;2.40;;;;;;;;;;5051933;28;20416;-91
2022/06/18 08:36:08;;;;;;;2.60;2.40;;;;;;;;;;5045520;28;20441;-88
2022/06/18 08:38:35;;;;;;;3.35;3.05;;;;;;;;;;5052414;28;20385;-88
2022/06/18 08:41:10;;;;;;;4.82;3.90;;;;;;;;;;5053245;28;20392;-88
2022/06/18 08:43:36;;;;;;;4.88;4.35;;;;;;;;;;5053237;28;20377;-88
2022/06/18 08:46:08;;;;;;;6.28;3.90;;;;;;;;;;5053248;28;20400;-87
2022/06/18 08:48:45;;;;;;;4.70;4.00;;;;;;;;;;5038788;28;20432;-88
2022/06/18 08:51:31;;;;;;;5.95;2.88;;;;;;;;;;5052473;28;20758;-87
2022/06/18 08:53:57;;;;;;;3.33;3.00;;;;;;;;;;5054274;28;20389;-86
2022/06/18 08:56:32;;;;;;;3.10;2.80;;;;;;;;;;5036462;28;20391;-89
2022/06/18 08:59:07;;;;;;;3.17;2.15;;;;;;;;;;5051020;28;20482;-88
2022/06/18 09:01:37;;;;;;;2.50;2.30;;;;;;;;;;5047820;28;20513;-88
2022/06/18 09:04:21;;;;;;;2.47;2.03;;;;;;;;;;5050647;28;20381;-88
2022/06/18 09:07:04;;;;;;;2.67;1.88;;;;;;;;;;5044302;28;20401;-88
2022/06/18 09:09:30;;;;;;;4.10;1.90;;;;;;;;;;5042322;28;20902;-89
2022/06/18 09:11:59;;;;;;;2.72;2.40;;;;;;;;;;5055635;28;20478;-89
2022/06/18 09:14:33;;;;;;;2.92;2.38;;;;;;;;;;5055404;28;20394;-89
2022/06/18 09:17:11;;;;;;;4.77;3.13;;;;;;;;;;5055749;28;20415;-88
2022/06/18 09:19:39;;;;;;;1.92;1.83;;;;;;;;;;5055454;28;20381;-87
2022/06/18 09:22:08;;;;;;;2.40;1.83;;;;;;;;;;5054898;28;20887;-88
2022/06/18 09:24:37;;;;;;;2.80;2.22;;;;;;;;;;5055275;28;20451;-87
2022/06/18 09:27:05;;;;;;;2.65;2.17;;;;;;;;;;5055230;28;20381;-88
2022/06/18 09:29:40;;;;;;;2.17;1.95;;;;;;;;;;5055458;28;20488;-88
2022/06/18 09:32:12;;;;;;;6.15;1.75;;;;;;;;;;5055815;28;20373;-88
2022/06/18 09:34:38;;;;;;;1.60;1.50;;;;;;;;;;5055634;28;20405;-87
2022/06/18 09:37:07;;;;;;;1.52;1.23;;;;;;;;;;5046925;28;20743;-88
2022/06/18 09:39:37;;;;;;;2.28;1.20;;;;;;;;;;5055336;28;20377;-88
2022/06/18 09:42:05;;;;;;;1.42;1.33;;;;;;;;;;5055342;28;20410;-89
2022/06/18 09:44:46;;;;;;;2.72;1.67;;;;;;;;;;5055019;28;20385;-88
2022/06/18 09:47:15;;;;;;;1.65;1.55;;;;;;;;;;5055205;28;20499;-88
2022/06/18 09:49:43;;;;;;;4.03;1.42;;;;;;;;;;5054910;28;20381;-88
2022/06/18 09:52:15;;;;;;;2.83;1.70;;;;;;;;;;5054839;28;20480;-88
2022/06/18 09:54:44;;;;;;;2.35;1.83;;;;;;;;;;5038585;28;20445;-85
2022/06/18 09:57:11;;;;;;;1.30;1.20;;;;;;;;;;5030310;28;20944;-89
2022/06/18 09:59:43;;;;;;;2.10;1.25;;;;;;;;;;5040633;28;20749;-88
2022/06/18 10:02:21;;;;;;;1.35;1.25;;;;;;;;;;5046036;28;20386;-87
2022/06/18 10:07:36;;;;;;;5.00;1.77;;;;;;;;;;5033391;28;20410;-86
2022/06/18 10:10:07;;;;;;;1.80;1.50;;;;;;;;;;5032744;28;20389;-87
2022/06/18 10:12:35;;;;;;;1.60;1.50;;;;;;;;;;5044702;28;20461;-84
2022/06/18 10:15:03;;;;;;;2.00;1.60;;;;;;;;;;5054299;28;20954;-85
2022/06/18 10:17:32;;;;;;;1.53;1.43;;;;;;;;;;5035894;28;20869;-87
2022/06/18 10:20:11;;;;;;;1.47;1.30;;;;;;;;;;5027281;28;20454;-85
2022/06/18 10:22:55;;;;;;;2.30;1.50;;;;;;;;;;5049149;28;20862;-87
2022/06/18 10:25:31;;;;;;;1.50;1.40;;;;;;;;;;5052591;28;20924;-85
2022/06/18 10:28:09;;;;;;;1.70;1.30;;;;;;;;;;5053063;28;20386;-86
2022/06/18 10:30:35;;;;;;;2.40;1.38;;;;;;;;;;5043350;28;20385;-86
2022/06/18 10:33:07;;;;;;;2.10;1.40;;;;;;;;;;5053498;28;20377;-87
2022/06/18 10:35:54;;;;;;;1.53;1.20;;;;;;;;;;5051465;28;20386;-85
2022/06/18 10:38:30;;;;;;;1.60;1.50;;;;;;;;;;5051234;28;20930;-85
2022/06/18 10:40:59;;;;;;;2.95;1.70;;;;;;;;;;5053780;28;20420;-86
2022/06/18 10:43:36;;;;;;;2.17;1.40;;;;;;;;;;5053511;28;20439;-88
2022/06/18 10:46:07;;;;;;;1.80;1.20;;;;;;;;;;5051322;28;20416;-85
2022/06/18 10:48:33;;;;;;;1.83;1.70;;;;;;;;;;5041007;28;20389;-86
2022/06/18 10:51:01;;;;;;;1.70;1.40;;;;;;;;;;5055338;28;20386;-89
2022/06/18 10:53:28;;;;;;;2.50;1.30;;;;;;;;;;5054328;28;20435;-86
2022/06/18 10:56:01;;;;;;;1.40;1.30;;;;;;;;;;5053195;28;20377;-87
2022/06/18 10:58:28;;;;;;;2.10;1.50;;;;;;;;;;5053315;28;20392;-87
2022/06/18 11:00:58;;;;;;;3.05;1.25;;;;;;;;;;5053065;28;20393;-87
2022/06/18 11:03:27;;;;;;;1.67;1.10;;;;;;;;;;5053080;28;20458;-86
2022/06/18 11:05:53;;;;;;;1.73;1.10;;;;;;;;;;5053045;28;20404;-87
2022/06/18 11:08:29;;;;;;;1.50;1.33;;;;;;;;;;5051698;28;20467;-87
2022/06/18 11:11:03;;;;;;;2.55;1.88;;;;;;;;;;5051638;28;20369;-87
2022/06/18 11:13:35;;;;;;;2.55;1.60;;;;;;;;;;5041284;28;20924;-87
2022/06/18 11:16:04;;;;;;;2.63;1.20;;;;;;;;;;5032096;28;20398;-87
2022/06/18 11:18:30;;;;;;;1.85;1.45;;;;;;;;;;5053083;28;20384;-84
2022/06/18 11:21:04;;;;;;;1.70;1.20;;;;;;;;;;5052876;28;20439;-85
2022/06/18 11:23:31;;;;;;;1.77;1.40;;;;;;;;;;5052703;28;20369;-87
2022/06/18 11:25:57;;;;;;;1.48;1.38;;;;;;;;;;5048573;28;20441;-85
2022/06/18 11:28:28;;;;;;;1.30;1.20;;;;;;;;;;5047651;28;20391;-86
2022/06/18 11:30:55;;;;;;;1.55;1.10;;;;;;;;;;5032325;28;20454;-86
2022/06/18 11:33:24;;;;;;;2.00;1.10;;;;;;;;;;5038362;28;20393;-84
2022/06/18 11:35:50;;;;;;;3.25;1.10;;;;;;;;;;5040204;28;20474;-87
2022/06/18 11:38:32;;;;;;;1.30;1.00;;;;;;;;;;5036334;28;20405;-87
2022/06/18 11:41:17;;;;;;;2.33;1.10;;;;;;;;;;5052883;28;20389;-88
2022/06/18 11:43:49;;;;;;;1.90;1.00;;;;;;;;;;5052354;28;20392;-87
2022/06/18 11:46:19;;;;;;;1.65;1.30;;;;;;;;;;5052445;28;20459;-87
2022/06/18 11:48:48;;;;;;;1.73;1.02;;;;;;;;;;5047729;28;20393;-86
2022/06/18 11:51:32;;;;;;;1.75;1.13;;;;;;;;;;5052458;28;20451;-86
2022/06/18 11:54:01;;;;;;;2.28;1.20;;;;;;;;;;5052150;28;20405;-86
2022/06/18 11:56:46;;;;;;;3.00;0.93;;;;;;;;;;5038200;28;20401;-86
2022/06/18 11:59:17;;;;;;;2.13;1.10;;;;;;;;;;5048565;28;20443;-86
2022/06/18 12:01:45;;;;;;;3.35;0.93;;;;;;;;;;5052409;28;20369;-86
2022/06/18 12:04:38;;;;;;;1.67;1.00;;;;;;;;;;5041920;28;20386;-86
2022/06/18 12:07:06;;;;;;;1.83;1.08;;;;;;;;;;5044057;28;20393;-86
2022/06/18 12:09:33;;;;;;;2.78;1.20;;;;;;;;;;5052201;28;20370;-85
2022/06/18 12:12:17;;;;;;;2.70;1.05;;;;;;;;;;5052128;28;20435;-87
2022/06/18 12:14:45;;;;;;;3.90;1.00;;;;;;;;;;5030207;28;20399;-86
2022/06/18 12:17:17;;;;;;;2.85;1.17;;;;;;;;;;5038848;28;20914;-86
2022/06/18 12:20:02;;;;;;;3.40;0.93;;;;;;;;;;5035690;28;20381;-85
2022/06/18 12:22:28;;;;;;;2.43;1.03;;;;;;;;;;5032358;28;20379;-89
2022/06/18 12:25:13;;;;;;;2.85;1.00;;;;;;;;;;5045334;28;20447;-86
2022/06/18 12:27:52;;;;;;;2.80;0.93;;;;;;;;;;5033675;28;20379;-85
2022/06/18 12:30:28;;;;;;;1.42;0.80;;;;;;;;;;5033323;28;20944;-86
2022/06/18 12:32:57;;;;;;;2.47;0.80;;;;;;;;;;5035585;28;20449;-86
2022/06/18 12:35:35;;;;;;;1.77;0.60;;;;;;;;;;5035285;28;20837;-86
2022/06/18 12:38:18;;;;;;;2.13;0.50;;;;;;;;;;5029106;28;20448;-87
2022/06/18 12:40:52;;;;;;;1.85;0.60;;;;;;;;;;5035021;28;20472;-87
2022/06/18 12:43:21;;;;;;;4.70;1.05;;;;;;;;;;5034626;28;20852;-87
2022/06/18 12:45:50;;;;;;;4.47;0.90;;;;;;;;;;5037332;28;20485;-88
2022/06/18 12:48:37;;;;;;;3.88;1.23;;;;;;;;;;5035313;28;20383;-88
2022/06/18 12:51:06;;;;;;;4.13;1.15;;;;;;;;;;5032317;28;20891;-87
2022/06/18 12:53:38;;;;;;;3.20;1.25;;;;;;;;;;5033956;28;20860;-86
2022/06/18 12:56:12;;;;;;;3.60;1.17;;;;;;;;;;5042435;28;20400;-86
2022/06/18 12:58:47;;;;;;;3.50;1.40;;;;;;;;;;5052811;28;20862;-85
2022/06/18 13:01:13;;;;;;;5.40;1.20;;;;;;;;;;5031204;28;20406;-85
2022/06/18 13:03:47;;;;;;;7.05;1.52;;;;;;;;;;5032854;28;20387;-84
2022/06/18 13:06:24;;;;;;;3.85;1.10;;;;;;;;;;5034604;28;20414;-84
2022/06/18 13:09:08;;;;;;;5.05;1.80;;;;;;;;;;5043898;28;20382;-84
2022/06/18 13:11:46;;;;;;;6.85;1.92;;;;;;;;;;5032147;28;20418;-87
2022/06/18 13:14:13;;;;;;;8.10;2.03;;;;;;;;;;5042209;28;20395;-87
2022/06/18 13:16:42;;;;;;;7.40;2.00;;;;;;;;;;5034790;28;20383;-85
2022/06/18 13:19:11;;;;;;;9.03;1.87;;;;;;;;;;5031747;28;20376;-86
2022/06/18 13:21:38;;;;;;;6.47;2.00;;;;;;;;;;5019517;28;20486;-85
2022/06/18 13:30:01;;;;;;;10.80;2.55;;;;;;;;;;5032559;28;20470;-85
2022/06/18 13:32:46;;;;;;;8.73;2.00;;;;;;;;;;5018590;28;20380;-85
2022/06/18 13:35:14;;;;;;;10.87;2.70;;;;;;;;;;5028074;28;20388;-86
2022/06/18 13:37:59;;;;;;;7.60;2.38;;;;;;;;;;5032512;28;20475;-85
2022/06/18 13:40:46;;;;;;;8.27;2.70;;;;;;;;;;5034345;28;20442;-84
2022/06/18 13:43:30;;;;;;;11.40;2.90;;;;;;;;;;5034338;28;20390;-84
2022/06/18 13:46:15;;;;;;;11.80;2.78;;;;;;;;;;5031110;28;20405;-86
2022/06/18 13:48:49;;;;;;;12.65;2.80;;;;;;;;;;5032466;28;20927;-84
2022/06/18 13:51:26;;;;;;;10.45;2.50;;;;;;;;;;5032105;28;20387;-88
2022/06/18 13:54:02;;;;;;;12.00;2.47;;;;;;;;;;5033585;28;20406;-84
2022/06/18 13:56:28;;;;;;;8.43;2.50;;;;;;;;;;5032344;28;20478;-85
2022/06/18 13:58:57;;;;;;;9.30;2.50;;;;;;;;;;5035464;28;20892;-85
2022/06/18 14:01:23;;;;;;;8.20;2.30;;;;;;;;;;5053540;28;20381;-85
2022/06/18 14:04:01;;;;;;;13.95;2.90;;;;;;;;;;5045701;28;20476;-85
2022/06/18 14:06:28;;;;;;;13.18;3.15;;;;;;;;;;5034280;28;20431;-86
2022/06/18 14:09:14;;;;;;;9.10;2.70;;;;;;;;;;5033351;28;20394;-84
2022/06/18 14:11:42;;;;;;;15.02;3.30;;;;;;;;;;5042136;28;20378;-84
2022/06/18 14:14:09;;;;;;;17.35;3.20;;;;;;;;;;5033276;28;20407;-84
2022/06/18 14:16:37;;;;;;;13.52;3.28;;;;;;;;;;5032049;28;20483;-85
2022/06/18 14:19:10;;;;;;;11.40;3.00;;;;;;;;;;5038296;28;20895;-84
2022/06/18 14:21:36;;;;;;;12.35;3.08;;;;;;;;;;5040927;28;20454;-84
2022/06/18 14:24:02;;;;;;;15.18;3.30;;;;;;;;;;5047156;28;20486;-83
2022/06/18 14:26:38;;;;;;;13.88;3.33;;;;;;;;;;5037151;28;20416;-85
2022/06/18 14:29:04;;;;;;;11.60;3.30;;;;;;;;;;5033210;28;20911;-84
2022/06/18 14:31:34;;;;;;;10.20;2.65;;;;;;;;;;5042046;28;20397;-83
2022/06/18 14:34:07;;;;;;;12.88;3.20;;;;;;;;;;5047903;28;20457;-85
2022/06/18 14:36:35;;;;;;;10.45;2.55;;;;;;;;;;5037722;28;20423;-83
2022/06/18 14:39:02;;;;;;;10.13;2.58;;;;;;;;;;5053806;28;20381;-88
2022/06/18 14:41:39;;;;;;;11.05;2.70;;;;;;;;;;5033352;28;20415;-88
2022/06/18 14:44:24;;;;;;;10.38;3.05;;;;;;;;;;5042943;28;20389;-88
2022/06/18 14:47:08;;;;;;;11.00;2.83;;;;;;;;;;5053413;28;20409;-86
2022/06/18 14:49:37;;;;;;;8.63;2.42;;;;;;;;;;5042362;28;20369;-87
2022/06/18 14:52:03;;;;;;;11.07;2.60;;;;;;;;;;5051388;28;20387;-87
2022/06/18 14:54:29;;;;;;;8.40;2.27;;;;;;;;;;5036892;28;20795;-88
2022/06/18 14:56:55;;;;;;;9.40;2.53;;;;;;;;;;5034801;28;20439;-87
2022/06/18 14:59:44;;;;;;;8.85;2.38;;;;;;;;;;5035161;28;20761;-87
2022/06/18 15:02:19;;;;;;;12.57;2.67;;;;;;;;;;5034257;28;20957;-88
2022/06/18 15:04:49;;;;;;;9.52;2.67;;;;;;;;;;5021933;28;20394;-90
2022/06/18 15:07:15;;;;;;;10.07;2.85;;;;;;;;;;5032688;28;20899;-86
2022/06/18 15:09:47;;;;;;;13.95;3.30;;;;;;;;;;5040547;28;20410;-88
2022/06/18 15:12:14;;;;;;;8.20;2.47;;;;;;;;;;5037982;28;20405;-87
2022/06/18 15:14:51;;;;;;;10.23;2.28;;;;;;;;;;5035235;28;20402;-87